Time;durP1;ratioP1;P1;durP2;ratioP2;P2;SDS_P1;SDS_P2;PMS_P1;PMS_P2;Temp;Humidity;BMP_temperature;BMP_pressure;BME280_temperature;BME280_humidity;BME280_pressure;Samples;Min_cycle;Max_cycle;Signal;HPM_P1;HPM_P2
2022/07/11 00:02:12;;;;;;;0.40;0.40;;;18.00;99.90;;;;;;5040902;28;20298;-82
2022/07/11 00:04:39;;;;;;;0.33;0.23;;;18.00;99.90;;;;;;5036711;28;20249;-82
2022/07/11 00:07:05;;;;;;;0.40;0.40;;;17.80;99.90;;;;;;5038479;28;20240;-84
2022/07/11 00:09:31;;;;;;;2.33;0.70;;;17.90;99.90;;;;;;5038881;28;20644;-81
2022/07/11 00:11:57;;;;;;;0.40;0.40;;;17.80;99.90;;;;;;5039066;28;20213;-81
2022/07/11 00:14:23;;;;;;;0.30;0.30;;;18.00;99.90;;;;;;5037497;28;20584;-82
2022/07/11 00:16:49;;;;;;;0.20;0.20;;;18.20;99.90;;;;;;5040453;28;20186;-82
2022/07/11 00:19:15;;;;;;;0.27;0.27;;;18.20;99.90;;;;;;5038278;28;20187;-83
2022/07/11 00:21:41;;;;;;;0.40;0.40;;;18.30;99.90;;;;;;5038641;28;20736;-81
2022/07/11 00:24:07;;;;;;;0.30;0.30;;;18.10;99.90;;;;;;5038944;28;20189;-83
2022/07/11 00:26:36;;;;;;;1.27;0.57;;;18.00;99.90;;;;;;5038596;28;20599;-83
2022/07/11 00:29:03;;;;;;;1.70;1.60;;;17.90;99.90;;;;;;5045129;28;20196;-82
2022/07/11 00:31:28;;;;;;;1.53;0.70;;;18.00;99.90;;;;;;5040372;28;20206;-82
2022/07/11 00:33:55;;;;;;;0.40;0.40;;;17.90;99.90;;;;;;5038510;28;20243;-82
2022/07/11 00:36:21;;;;;;;0.43;0.40;;;17.80;99.90;;;;;;5037243;28;20190;-83
2022/07/11 00:38:46;;;;;;;0.30;0.30;;;17.90;99.90;;;;;;5038622;28;21109;-83
2022/07/11 00:41:12;;;;;;;0.40;0.40;;;18.00;99.90;;;;;;5038784;28;20225;-83
2022/07/11 00:43:40;;;;;;;0.30;0.23;;;18.00;99.90;;;;;;5038961;28;20212;-82
2022/07/11 00:46:07;;;;;;;0.50;0.50;;;18.00;99.90;;;;;;5038300;28;20193;-83
2022/07/11 00:48:33;;;;;;;0.30;0.30;;;18.10;99.90;;;;;;5059945;28;20194;-82
2022/07/11 00:51:02;;;;;;;0.40;0.40;;;18.20;99.90;;;;;;5037051;28;20574;-83
2022/07/11 00:53:29;;;;;;;0.33;0.33;;;18.10;99.90;;;;;;5037660;28;20178;-83
2022/07/11 00:55:55;;;;;;;0.43;0.43;;;18.10;99.90;;;;;;5036340;28;20224;-82
2022/07/11 00:58:21;;;;;;;0.30;0.30;;;18.30;99.90;;;;;;5036608;28;20197;-83
2022/07/11 01:00:48;;;;;;;0.43;0.43;;;18.10;99.90;;;;;;5040170;28;20566;-82
2022/07/11 01:03:14;;;;;;;0.30;0.30;;;18.10;99.90;;;;;;5042217;28;20193;-83
2022/07/11 01:05:39;;;;;;;1.10;0.27;;;18.00;99.90;;;;;;5047794;28;20214;-82
2022/07/11 01:08:05;;;;;;;0.73;0.57;;;18.00;99.90;;;;;;5064555;28;20328;-82
2022/07/11 01:10:31;;;;;;;0.20;0.20;;;18.00;99.90;;;;;;5042519;28;20194;-83
2022/07/11 01:12:57;;;;;;;0.60;0.60;;;17.90;99.90;;;;;;5039261;28;20248;-82
2022/07/11 01:15:24;;;;;;;0.50;0.50;;;18.00;99.90;;;;;;5041060;28;20194;-81
2022/07/11 01:17:52;;;;;;;0.50;0.50;;;18.00;99.90;;;;;;5043465;28;20181;-82
2022/07/11 01:20:18;;;;;;;1.47;0.63;;;18.10;99.90;;;;;;5042392;28;20209;-82
2022/07/11 01:22:51;;;;;;;0.43;0.43;;;18.10;99.90;;;;;;5042264;28;20211;-82
2022/07/11 01:25:34;;;;;;;0.30;0.30;;;18.20;99.90;;;;;;5046497;28;20197;-82
2022/07/11 01:28:04;;;;;;;0.30;0.30;;;18.20;99.90;;;;;;5040825;28;20185;-82
2022/07/11 01:30:31;;;;;;;0.63;0.63;;;18.20;99.90;;;;;;5039412;28;20560;-82
2022/07/11 01:32:57;;;;;;;0.30;0.30;;;18.10;99.90;;;;;;5038545;28;20222;-83
2022/07/11 01:35:23;;;;;;;0.30;0.30;;;18.00;99.90;;;;;;5040733;28;20201;-82
2022/07/11 01:37:49;;;;;;;0.90;0.90;;;18.20;99.90;;;;;;5040605;28;20192;-82
2022/07/11 01:40:15;;;;;;;0.20;0.20;;;18.10;99.90;;;;;;5039340;28;20304;-82
2022/07/11 01:42:40;;;;;;;0.30;0.30;;;18.10;99.90;;;;;;5040343;28;20206;-82
2022/07/11 01:45:07;;;;;;;0.37;0.37;;;18.20;99.90;;;;;;5038987;28;20206;-83
2022/07/11 01:47:32;;;;;;;0.43;0.43;;;18.20;99.90;;;;;;5039735;28;20216;-82
2022/07/11 01:49:58;;;;;;;0.20;0.20;;;18.40;99.90;;;;;;5042106;28;20238;-83
2022/07/11 01:52:23;;;;;;;0.37;0.37;;;18.60;99.90;;;;;;5039776;28;20206;-82
2022/07/11 01:54:49;;;;;;;0.63;0.63;;;18.60;99.90;;;;;;5041122;28;20190;-82
2022/07/11 01:57:15;;;;;;;0.13;0.13;;;18.70;99.90;;;;;;5038005;28;20196;-82
2022/07/11 01:59:41;;;;;;;0.20;0.20;;;18.80;99.90;;;;;;5060440;28;20186;-82
2022/07/11 02:02:07;;;;;;;0.30;0.30;;;18.80;99.90;;;;;;5039018;28;20244;-83
2022/07/11 02:04:32;;;;;;;0.30;0.30;;;18.80;99.90;;;;;;5039942;28;20187;-82
2022/07/11 02:06:58;;;;;;;0.40;0.40;;;18.90;99.90;;;;;;5037490;28;20183;-82
2022/07/11 02:09:24;;;;;;;2.23;0.40;;;18.90;99.90;;;;;;5038239;28;20269;-81
2022/07/11 02:11:49;;;;;;;0.23;0.23;;;19.00;99.90;;;;;;5038432;28;20211;-82
2022/07/11 02:14:15;;;;;;;0.30;0.30;;;19.00;99.90;;;;;;5043985;28;20186;-82
2022/07/11 02:16:41;;;;;;;0.37;0.37;;;19.10;99.90;;;;;;5042960;28;20202;-82
2022/07/11 02:19:07;;;;;;;0.47;0.47;;;19.10;99.90;;;;;;5042601;28;20574;-83
2022/07/11 02:21:33;;;;;;;0.97;0.57;;;19.10;99.90;;;;;;5040710;28;20596;-82
2022/07/11 02:23:59;;;;;;;0.23;0.23;;;19.00;99.90;;;;;;5043198;28;20186;-85
2022/07/11 02:26:24;;;;;;;2.37;0.57;;;19.00;99.90;;;;;;5041306;28;20190;-85
2022/07/11 02:28:50;;;;;;;0.40;0.40;;;18.70;99.90;;;;;;5063455;28;20287;-85
2022/07/11 02:31:15;;;;;;;0.40;0.40;;;18.90;99.90;;;;;;5041466;28;20262;-84
2022/07/11 02:33:41;;;;;;;0.20;0.20;;;18.90;99.90;;;;;;5041116;28;20188;-84
2022/07/11 02:36:07;;;;;;;0.37;0.37;;;19.00;99.90;;;;;;5040700;28;20687;-85
2022/07/11 02:38:33;;;;;;;0.40;0.40;;;18.80;99.90;;;;;;5040254;28;20815;-84
2022/07/11 02:40:59;;;;;;;0.20;0.20;;;18.90;99.90;;;;;;5041853;28;20652;-85
2022/07/11 02:43:25;;;;;;;0.20;0.20;;;18.90;99.90;;;;;;5038087;28;20199;-85
2022/07/11 02:45:51;;;;;;;0.30;0.30;;;18.90;99.90;;;;;;5038253;28;20189;-85
2022/07/11 02:48:16;;;;;;;0.30;0.30;;;19.00;99.90;;;;;;5039780;28;20192;-84
2022/07/11 02:50:42;;;;;;;0.10;0.10;;;19.00;99.90;;;;;;5041114;28;20189;-84
2022/07/11 02:53:09;;;;;;;0.63;0.53;;;19.10;99.90;;;;;;5038964;28;20210;-84
2022/07/11 02:55:35;;;;;;;0.30;0.30;;;19.10;99.90;;;;;;5041531;28;20954;-85
2022/07/11 02:58:00;;;;;;;0.20;0.20;;;19.10;99.90;;;;;;5041038;28;20192;-84
2022/07/11 03:00:27;;;;;;;1.17;0.27;;;19.20;99.90;;;;;;5040925;28;20276;-84
2022/07/11 03:02:53;;;;;;;0.30;0.20;;;19.20;99.90;;;;;;5041363;28;20182;-85
2022/07/11 03:05:18;;;;;;;0.30;0.30;;;19.10;99.90;;;;;;5040417;28;20210;-85
2022/07/11 03:07:44;;;;;;;0.30;0.30;;;19.20;99.90;;;;;;5039981;28;20214;-85
2022/07/11 03:10:10;;;;;;;0.20;0.20;;;19.20;99.90;;;;;;5038706;28;20652;-84
2022/07/11 03:12:36;;;;;;;1.30;0.40;;;19.20;99.90;;;;;;5039472;28;20214;-85
2022/07/11 03:15:01;;;;;;;0.30;0.30;;;19.20;99.90;;;;;;5038494;28;20671;-84
2022/07/11 03:17:27;;;;;;;0.57;0.57;;;19.20;99.90;;;;;;5039856;28;20182;-85
2022/07/11 03:19:53;;;;;;;0.57;0.57;;;19.20;99.90;;;;;;5038411;28;20218;-85
2022/07/11 03:22:18;;;;;;;0.33;0.33;;;19.20;99.90;;;;;;5041299;28;20641;-84
2022/07/11 03:24:44;;;;;;;0.40;0.40;;;19.20;99.90;;;;;;5045629;28;21033;-85
2022/07/11 03:27:10;;;;;;;0.20;0.20;;;19.30;99.90;;;;;;5038569;28;20724;-85
2022/07/11 03:29:36;;;;;;;0.23;0.23;;;19.30;99.90;;;;;;5039894;28;20720;-85
2022/07/11 03:32:02;;;;;;;0.40;0.40;;;19.30;99.90;;;;;;5039344;28;20203;-84
2022/07/11 03:34:27;;;;;;;0.43;0.40;;;19.30;99.90;;;;;;5042182;28;20197;-84
2022/07/11 03:36:53;;;;;;;0.63;0.57;;;19.30;99.90;;;;;;5038763;28;20278;-84
2022/07/11 03:39:21;;;;;;;0.20;0.20;;;19.30;99.90;;;;;;5039735;28;20967;-85
2022/07/11 03:41:46;;;;;;;0.20;0.20;;;19.30;99.90;;;;;;5039379;28;20965;-85
2022/07/11 03:44:12;;;;;;;0.63;0.57;;;19.30;99.90;;;;;;5039972;28;20222;-84
2022/07/11 03:46:38;;;;;;;0.20;0.20;;;19.30;99.90;;;;;;5039488;28;20181;-85
2022/07/11 03:49:04;;;;;;;0.30;0.30;;;19.30;99.90;;;;;;5041320;28;20219;-85
2022/07/11 03:51:29;;;;;;;0.43;0.43;;;19.40;99.90;;;;;;5038807;28;20652;-84
2022/07/11 03:53:55;;;;;;;0.10;0.10;;;19.30;99.90;;;;;;5039701;28;20197;-83
2022/07/11 03:56:22;;;;;;;0.47;0.40;;;19.30;99.90;;;;;;5040769;28;20189;-83
2022/07/11 03:58:51;;;;;;;0.37;0.37;;;19.30;99.90;;;;;;5042576;28;20186;-83
2022/07/11 04:01:16;;;;;;;0.33;0.33;;;19.30;99.90;;;;;;5035391;28;20240;-85
2022/07/11 04:03:42;;;;;;;0.20;0.20;;;19.40;99.90;;;;;;5038075;28;20245;-84
2022/07/11 04:06:07;;;;;;;0.30;0.30;;;19.40;99.90;;;;;;5035524;28;20194;-83
2022/07/11 04:08:33;;;;;;;0.20;0.20;;;19.40;99.90;;;;;;5037654;28;20194;-83
2022/07/11 04:10:59;;;;;;;0.30;0.30;;;19.40;99.90;;;;;;5042688;28;20299;-83
2022/07/11 04:13:24;;;;;;;0.20;0.20;;;19.40;99.90;;;;;;5035831;28;20225;-84
2022/07/11 04:15:50;;;;;;;0.93;0.73;;;19.40;99.90;;;;;;5038340;28;20239;-84
2022/07/11 04:18:15;;;;;;;0.50;0.50;;;19.50;99.90;;;;;;5035562;28;20659;-84
2022/07/11 04:20:41;;;;;;;0.20;0.20;;;19.50;99.90;;;;;;5039297;28;20742;-84
2022/07/11 04:23:07;;;;;;;0.20;0.20;;;19.50;99.90;;;;;;5035672;28;20193;-84
2022/07/11 04:25:34;;;;;;;0.27;0.27;;;19.40;99.90;;;;;;5036015;28;20655;-84
2022/07/11 04:28:00;;;;;;;0.23;0.23;;;19.50;99.90;;;;;;5037461;28;20190;-83
2022/07/11 04:30:25;;;;;;;0.40;0.40;;;19.50;99.90;;;;;;5037053;28;20854;-84
2022/07/11 04:32:51;;;;;;;0.30;0.30;;;19.60;99.90;;;;;;5037849;28;20265;-83
2022/07/11 04:35:17;;;;;;;0.20;0.20;;;19.60;99.90;;;;;;5036321;28;20219;-84
2022/07/11 04:37:43;;;;;;;0.70;0.70;;;19.70;99.90;;;;;;5035664;28;21278;-84
2022/07/11 04:40:09;;;;;;;0.20;0.20;;;19.80;99.90;;;;;;5036947;28;20191;-84
2022/07/11 04:42:35;;;;;;;0.93;0.40;;;19.90;99.90;;;;;;5035208;28;20214;-83
2022/07/11 04:45:00;;;;;;;0.50;0.50;;;20.00;99.90;;;;;;5036558;28;20300;-83
2022/07/11 04:47:26;;;;;;;0.20;0.20;;;20.00;99.90;;;;;;5038378;28;20182;-83
2022/07/11 04:49:52;;;;;;;0.43;0.30;;;20.00;99.90;;;;;;5038717;28;20182;-83
2022/07/11 04:52:17;;;;;;;0.33;0.30;;;20.00;99.90;;;;;;5038455;28;20669;-83
2022/07/11 04:54:43;;;;;;;0.20;0.20;;;19.90;99.90;;;;;;5036747;28;20201;-83
2022/07/11 04:57:09;;;;;;;0.20;0.20;;;19.90;99.90;;;;;;5040639;28;20604;-83
2022/07/11 04:59:34;;;;;;;1.70;0.83;;;19.90;99.90;;;;;;5038136;28;20197;-83
2022/07/11 05:02:00;;;;;;;1.57;0.43;;;20.00;99.90;;;;;;5037759;28;20215;-83
2022/07/11 05:04:25;;;;;;;0.30;0.30;;;20.00;99.90;;;;;;5039065;28;20691;-83
2022/07/11 05:06:51;;;;;;;1.70;0.43;;;20.00;99.90;;;;;;5037681;28;20182;-83
2022/07/11 05:09:16;;;;;;;0.60;0.60;;;20.00;99.90;;;;;;5037866;28;20582;-83
2022/07/11 05:11:42;;;;;;;0.30;0.30;;;20.10;99.90;;;;;;5037633;28;20818;-82
2022/07/11 05:14:08;;;;;;;0.73;0.30;;;20.00;99.90;;;;;;5035619;28;20645;-82
2022/07/11 05:16:34;;;;;;;0.47;0.47;;;20.00;99.90;;;;;;5037489;28;20247;-82
2022/07/11 05:18:59;;;;;;;0.27;0.27;;;20.00;99.90;;;;;;5034790;28;20581;-82
2022/07/11 05:21:25;;;;;;;0.40;0.40;;;20.00;99.90;;;;;;5035026;28;20214;-83
2022/07/11 05:23:50;;;;;;;1.03;0.20;;;20.10;99.90;;;;;;5041609;28;20285;-83
2022/07/11 05:26:16;;;;;;;0.67;0.37;;;20.20;99.90;;;;;;5034180;28;20197;-83
2022/07/11 05:28:42;;;;;;;0.27;0.27;;;20.40;99.90;;;;;;5056485;28;20319;-83
2022/07/11 05:31:08;;;;;;;0.43;0.43;;;20.50;99.90;;;;;;5037180;28;20234;-83
2022/07/11 05:33:34;;;;;;;0.73;0.73;;;20.60;99.90;;;;;;5035913;28;20194;-82
2022/07/11 05:36:01;;;;;;;0.20;0.20;;;20.80;99.90;;;;;;5036475;28;20189;-83
2022/07/11 05:38:26;;;;;;;0.20;0.20;;;20.50;99.90;;;;;;5035487;28;20730;-83
2022/07/11 05:40:52;;;;;;;0.30;0.30;;;20.50;99.90;;;;;;5034266;28;20213;-84
2022/07/11 05:43:17;;;;;;;0.30;0.30;;;20.70;99.90;;;;;;5036060;28;20221;-83
2022/07/11 05:45:43;;;;;;;0.77;0.77;;;20.50;99.90;;;;;;5042677;28;20789;-84
2022/07/11 05:48:09;;;;;;;0.30;0.30;;;20.30;99.90;;;;;;5034971;28;20209;-84
2022/07/11 05:50:34;;;;;;;0.67;0.60;;;20.40;99.90;;;;;;5033790;28;20186;-83
2022/07/11 05:53:02;;;;;;;0.53;0.40;;;20.70;99.90;;;;;;5036012;28;20182;-84
2022/07/11 05:55:28;;;;;;;0.30;0.30;;;20.60;99.90;;;;;;5037430;28;20929;-84
2022/07/11 05:57:54;;;;;;;0.50;0.30;;;20.90;99.90;;;;;;5037890;28;20202;-83
2022/07/11 06:00:21;;;;;;;0.60;0.50;;;21.20;99.90;;;;;;5039437;28;20201;-84
2022/07/11 06:02:47;;;;;;;1.20;1.10;;;21.10;99.90;;;;;;5036361;28;20679;-84
2022/07/11 06:05:13;;;;;;;0.60;0.60;;;20.80;99.90;;;;;;5035452;28;20197;-84
2022/07/11 06:10:23;;;;;;;0.60;0.60;;;20.90;99.90;;;;;;5036941;28;20188;-83
2022/07/11 06:12:48;;;;;;;0.27;0.27;;;21.20;99.90;;;;;;5033650;28;20206;-83
2022/07/11 06:15:14;;;;;;;0.40;0.40;;;21.30;99.90;;;;;;5036845;28;20182;-83
2022/07/11 06:17:39;;;;;;;0.40;0.40;;;21.40;99.90;;;;;;5038884;28;20189;-83
2022/07/11 06:20:06;;;;;;;0.50;0.50;;;21.10;99.90;;;;;;5035768;28;20185;-83
2022/07/11 06:22:32;;;;;;;0.30;0.30;;;21.10;99.90;;;;;;5033236;28;20216;-84
2022/07/11 06:24:57;;;;;;;0.37;0.37;;;21.30;99.90;;;;;;5035165;28;20566;-84
2022/07/11 06:27:23;;;;;;;0.50;0.50;;;21.20;99.90;;;;;;5035711;28;21161;-84
2022/07/11 06:29:48;;;;;;;5.27;0.77;;;21.40;99.90;;;;;;5036821;28;20189;-84
2022/07/11 06:32:14;;;;;;;0.40;0.40;;;21.40;99.90;;;;;;5035984;28;20894;-84
2022/07/11 06:34:39;;;;;;;0.23;0.23;;;21.20;99.90;;;;;;5057842;28;21197;-83
2022/07/11 06:37:05;;;;;;;0.40;0.40;;;21.80;99.90;;;;;;5033486;28;20608;-84
2022/07/11 06:39:31;;;;;;;0.77;0.40;;;22.00;99.90;;;;;;5037368;28;20190;-83
2022/07/11 06:41:56;;;;;;;0.33;0.30;;;22.00;99.90;;;;;;5037103;28;20214;-84
2022/07/11 06:44:22;;;;;;;1.60;0.73;;;22.00;99.90;;;;;;5033898;28;20198;-83
2022/07/11 06:46:48;;;;;;;0.20;0.20;;;22.20;99.90;;;;;;5033444;28;20189;-84
2022/07/11 06:49:14;;;;;;;0.63;0.63;;;22.30;99.90;;;;;;5035912;28;20178;-84
2022/07/11 06:51:39;;;;;;;0.30;0.30;;;22.40;99.90;;;;;;5037294;28;20289;-83
2022/07/11 06:54:05;;;;;;;0.53;0.53;;;22.40;99.90;;;;;;5034861;28;20210;-83
2022/07/11 06:56:31;;;;;;;0.77;0.57;;;21.90;99.90;;;;;;5033897;28;20241;-83
2022/07/11 06:58:56;;;;;;;0.40;0.40;;;21.80;99.90;;;;;;5036197;28;20190;-83
2022/07/11 07:01:22;;;;;;;1.07;0.80;;;22.00;99.90;;;;;;5034614;28;20783;-83
2022/07/11 07:03:47;;;;;;;0.40;0.40;;;21.90;99.90;;;;;;5036934;28;20191;-83
2022/07/11 07:06:13;;;;;;;0.67;0.67;;;21.90;99.90;;;;;;5053696;28;20198;-83
2022/07/11 07:08:39;;;;;;;0.57;0.57;;;22.10;99.90;;;;;;5038683;28;20218;-83
2022/07/11 07:11:04;;;;;;;0.47;0.47;;;22.30;99.90;;;;;;5038683;28;20213;-83
2022/07/11 07:13:30;;;;;;;1.70;1.10;;;22.10;99.90;;;;;;5039016;28;20208;-81
2022/07/11 07:15:59;;;;;;;0.53;0.53;;;22.00;99.90;;;;;;5036504;28;20205;-81
2022/07/11 07:18:25;;;;;;;0.40;0.40;;;21.70;99.90;;;;;;5061871;28;20194;-84
2022/07/11 07:20:51;;;;;;;0.83;0.83;;;22.10;99.90;;;;;;5036746;28;20221;-83
2022/07/11 07:23:17;;;;;;;0.67;0.50;;;22.10;99.90;;;;;;5037790;28;20229;-83
2022/07/11 07:25:43;;;;;;;0.50;0.50;;;21.70;99.90;;;;;;5040729;28;21264;-82
2022/07/11 07:46:22;;;;;;;1.07;0.80;;;21.90;99.90;;;;;;5120185;27;20577;-80
2022/07/11 07:48:47;;;;;;;0.50;0.50;;;22.20;99.90;;;;;;5075146;28;20254;-82
2022/07/11 07:51:13;;;;;;;0.90;0.70;;;22.50;99.90;;;;;;5073857;28;20249;-80
2022/07/11 07:53:39;;;;;;;0.60;0.60;;;22.50;99.90;;;;;;5085568;28;20704;-79
2022/07/11 07:56:05;;;;;;;1.00;0.80;;;22.70;99.90;;;;;;5091262;28;20298;-79
2022/07/11 07:58:32;;;;;;;0.80;0.63;;;22.90;99.90;;;;;;5088176;28;20179;-79
2022/07/11 08:03:41;;;;;;;0.20;0.20;;;22.40;99.90;;;;;;5098113;28;20231;-80
2022/07/11 08:06:07;;;;;;;0.20;0.20;;;22.60;99.90;;;;;;5079542;28;20610;-79
2022/07/11 08:08:32;;;;;;;0.63;0.43;;;22.50;99.90;;;;;;5089137;28;20184;-80
2022/07/11 08:11:00;;;;;;;0.63;0.57;;;22.50;99.90;;;;;;5089785;28;20185;-79
2022/07/11 08:13:26;;;;;;;0.20;0.20;;;22.10;99.90;;;;;;5077966;28;20198;-80
2022/07/11 08:15:52;;;;;;;0.30;0.30;;;22.20;99.90;;;;;;5093408;28;20200;-79
2022/07/11 08:18:17;;;;;;;0.67;0.60;;;22.00;99.90;;;;;;5091185;28;20178;-79
2022/07/11 08:20:43;;;;;;;0.30;0.30;;;21.40;99.90;;;;;;5074842;28;20169;-79
2022/07/11 08:23:08;;;;;;;0.20;0.20;;;21.40;99.90;;;;;;5078330;28;20260;-80
2022/07/11 08:25:34;;;;;;;0.20;0.20;;;21.60;99.90;;;;;;5074662;28;20745;-81
2022/07/11 08:27:59;;;;;;;0.53;0.40;;;22.10;99.90;;;;;;5090254;28;20204;-79
2022/07/11 08:30:25;;;;;;;0.20;0.20;;;22.30;99.90;;;;;;5102771;28;20199;-79
2022/07/11 08:32:51;;;;;;;0.80;0.63;;;22.30;99.90;;;;;;5079647;28;20184;-80
2022/07/11 08:35:18;;;;;;;0.40;0.40;;;22.20;99.90;;;;;;5065639;28;20209;-80
2022/07/11 08:37:44;;;;;;;0.63;0.63;;;22.20;99.90;;;;;;5099833;28;20280;-79
2022/07/11 08:40:10;;;;;;;0.50;0.50;;;21.50;99.90;;;;;;5090624;28;20208;-80
2022/07/11 08:42:45;;;;;;;0.30;0.27;;;21.60;99.90;;;;;;5094937;28;20172;-80
2022/07/11 08:45:14;;;;;;;0.40;0.40;;;22.00;99.90;;;;;;5082760;28;20287;-80
2022/07/11 08:47:41;;;;;;;0.20;0.20;;;21.90;99.90;;;;;;5086223;28;20204;-80
2022/07/11 08:50:08;;;;;;;0.30;0.30;;;21.30;99.90;;;;;;5076892;28;20182;-81
2022/07/11 08:52:34;;;;;;;0.67;0.67;;;21.40;99.90;;;;;;5061646;28;20177;-80
2022/07/11 08:54:59;;;;;;;0.50;0.50;;;21.00;99.90;;;;;;5088144;28;20212;-80
2022/07/11 08:57:25;;;;;;;0.50;0.50;;;21.00;99.90;;;;;;5067424;28;20294;-79
2022/07/11 08:59:55;;;;;;;0.40;0.40;;;20.90;99.90;;;;;;5080560;28;20598;-79
2022/07/11 09:02:21;;;;;;;0.30;0.30;;;21.80;99.90;;;;;;5077888;28;20180;-80
2022/07/11 09:04:47;;;;;;;0.20;0.20;;;21.90;99.90;;;;;;5078982;28;20230;-80
2022/07/11 09:07:13;;;;;;;0.40;0.40;;;22.20;99.90;;;;;;5078616;28;20205;-79
2022/07/11 09:09:38;;;;;;;0.30;0.30;;;22.30;99.90;;;;;;5084005;28;20192;-80
2022/07/11 09:12:14;;;;;;;0.63;0.40;;;22.10;99.90;;;;;;5072739;28;20295;-80
2022/07/11 09:14:45;;;;;;;0.57;0.53;;;22.10;99.90;;;;;;5078211;28;20661;-80
2022/07/11 09:17:10;;;;;;;0.60;0.60;;;22.10;99.90;;;;;;5086834;28;20206;-80
2022/07/11 09:19:39;;;;;;;0.70;0.70;;;22.10;99.90;;;;;;5078458;28;20259;-80
2022/07/11 09:27:48;;;;;;;0.60;0.60;;;22.10;99.90;;;;;;5078661;28;20234;-80
2022/07/11 09:30:32;;;;;;;0.40;0.40;;;22.20;99.90;;;;;;5084522;28;20180;-80
2022/07/11 09:33:00;;;;;;;0.30;0.30;;;22.30;99.90;;;;;;5065294;28;20185;-79
2022/07/11 09:35:31;;;;;;;1.07;0.57;;;22.20;99.90;;;;;;5060191;28;20201;-83
2022/07/11 09:37:57;;;;;;;0.33;0.33;;;21.90;99.90;;;;;;5072394;28;20204;-80
2022/07/11 09:40:23;;;;;;;0.70;0.70;;;22.00;99.90;;;;;;5072311;28;20647;-79
2022/07/11 09:42:59;;;;;;;0.40;0.40;;;22.20;99.90;;;;;;5072072;28;20180;-79
2022/07/11 09:45:26;;;;;;;0.60;0.60;;;22.00;99.90;;;;;;5055643;28;20673;-79
2022/07/11 09:47:55;;;;;;;0.50;0.50;;;21.90;99.90;;;;;;5073686;28;20201;-79
2022/07/11 09:50:22;;;;;;;1.37;1.27;;;22.10;99.90;;;;;;5067434;28;20185;-79
2022/07/11 09:53:11;;;;;;;0.47;0.47;;;22.20;99.90;;;;;;5063637;28;20613;-79
2022/07/11 09:55:42;;;;;;;0.67;0.40;;;22.50;99.90;;;;;;5051727;28;20224;-80
2022/07/11 09:58:11;;;;;;;0.33;0.33;;;23.10;99.90;;;;;;5067979;28;20191;-80
2022/07/11 10:00:38;;;;;;;2.40;0.50;;;23.40;99.90;;;;;;5076516;28;20283;-80
2022/07/11 10:03:06;;;;;;;0.80;0.50;;;23.60;99.90;;;;;;5052502;28;20196;-80
2022/07/11 10:05:32;;;;;;;0.57;0.53;;;23.60;99.90;;;;;;5062913;28;20205;-80
2022/07/11 10:07:58;;;;;;;0.37;0.37;;;23.50;99.90;;;;;;5070226;28;20259;-80
2022/07/11 10:10:26;;;;;;;3.40;0.90;;;23.80;99.90;;;;;;5067454;28;20686;-80
2022/07/11 10:12:53;;;;;;;0.40;0.40;;;23.70;99.90;;;;;;5071620;28;20264;-80
2022/07/11 10:15:34;;;;;;;0.30;0.30;;;23.80;99.90;;;;;;5075483;28;20213;-80
2022/07/11 10:18:02;;;;;;;0.30;0.30;;;24.10;99.90;;;;;;5076245;28;20228;-81
2022/07/11 10:20:59;;;;;;;0.57;0.57;;;23.60;99.90;;;;;;5057808;28;20192;-80
2022/07/11 10:23:36;;;;;;;0.37;0.37;;;24.00;99.90;;;;;;5061415;28;20208;-80
2022/07/11 10:26:07;;;;;;;0.47;0.47;;;23.90;99.90;;;;;;5078454;28;20287;-79
2022/07/11 10:28:48;;;;;;;1.07;0.53;;;23.80;99.90;;;;;;5069467;28;20195;-80
2022/07/11 10:31:21;;;;;;;0.50;0.50;;;23.60;99.90;;;;;;5072940;28;20666;-79
2022/07/11 10:34:03;;;;;;;0.73;0.53;;;23.50;99.90;;;;;;5077104;28;20219;-80
2022/07/11 10:36:38;;;;;;;0.77;0.63;;;23.60;99.90;;;;;;5079516;28;20691;-80
2022/07/11 10:39:32;;;;;;;0.47;0.47;;;24.60;99.90;;;;;;5062547;28;20740;-79
2022/07/11 10:41:59;;;;;;;0.47;0.47;;;24.70;99.90;;;;;;5050877;28;20193;-79
2022/07/11 10:44:26;;;;;;;0.40;0.40;;;24.80;99.90;;;;;;5062744;28;20196;-78
2022/07/11 10:46:54;;;;;;;0.90;0.60;;;24.60;99.90;;;;;;5058514;28;20224;-78
2022/07/11 10:49:48;;;;;;;2.30;1.17;;;24.30;99.90;;;;;;5054048;28;20276;-79
2022/07/11 10:52:23;;;;;;;0.60;0.60;;;24.60;99.90;;;;;;5056363;28;20208;-79
2022/07/11 10:55:28;;;;;;;0.53;0.40;;;24.90;99.90;;;;;;5069924;28;20204;-79
2022/07/11 10:58:09;;;;;;;0.20;0.20;;;24.90;99.90;;;;;;5074098;28;20701;-79
2022/07/11 11:00:34;;;;;;;0.43;0.43;;;24.90;99.90;;;;;;5071364;28;20177;-79
2022/07/11 11:03:08;;;;;;;0.77;0.67;;;25.20;99.90;;;;;;5058323;28;20182;-78
2022/07/11 11:05:54;;;;;;;0.33;0.33;;;24.90;99.90;;;;;;5076088;28;20580;-79
2022/07/11 11:08:32;;;;;;;0.40;0.40;;;24.90;99.90;;;;;;5069974;28;20718;-79
2022/07/11 11:11:02;;;;;;;0.60;0.60;;;25.30;99.90;;;;;;5094913;28;20233;-79
2022/07/11 11:13:28;;;;;;;0.40;0.40;;;25.20;99.90;;;;;;5072522;28;20188;-80
2022/07/11 11:15:57;;;;;;;0.83;0.83;;;25.30;99.90;;;;;;5059285;28;20208;-79
2022/07/11 11:18:25;;;;;;;0.53;0.53;;;25.70;99.90;;;;;;5070242;28;20600;-79
2022/07/11 11:21:00;;;;;;;0.57;0.50;;;24.90;99.90;;;;;;5059725;28;20189;-79
2022/07/11 11:23:28;;;;;;;0.53;0.53;;;24.90;99.90;;;;;;5077430;28;20169;-79
2022/07/11 11:25:54;;;;;;;0.50;0.50;;;24.90;99.90;;;;;;5060110;28;20276;-79
2022/07/11 11:28:23;;;;;;;0.60;0.60;;;25.00;99.90;;;;;;5075946;28;20256;-79
2022/07/11 11:31:00;;;;;;;0.30;0.30;;;25.00;99.90;;;;;;5053578;28;20186;-78
2022/07/11 11:33:30;;;;;;;0.30;0.30;;;25.30;99.90;;;;;;5072443;28;20172;-78
2022/07/11 11:36:00;;;;;;;0.70;0.70;;;25.70;99.90;;;;;;5075204;28;20220;-80
2022/07/11 11:38:26;;;;;;;0.90;0.90;;;25.50;99.90;;;;;;5069308;28;20197;-80
2022/07/11 11:40:52;;;;;;;0.47;0.47;;;24.60;99.90;;;;;;5071611;28;20185;-80
2022/07/11 11:43:20;;;;;;;0.50;0.50;;;24.40;99.90;;;;;;5067910;28;20180;-80
2022/07/11 11:45:49;;;;;;;0.70;0.70;;;24.20;99.90;;;;;;5058078;28;20192;-80
2022/07/11 11:48:32;;;;;;;0.43;0.43;;;24.20;99.90;;;;;;5067938;28;20318;-80
2022/07/11 11:51:02;;;;;;;0.47;0.47;;;25.10;99.90;;;;;;5073205;28;20181;-80
2022/07/11 11:53:29;;;;;;;0.20;0.20;;;25.00;99.90;;;;;;5071425;28;20230;-80
2022/07/11 11:55:55;;;;;;;0.40;0.40;;;25.30;99.90;;;;;;5050531;28;20248;-80
2022/07/11 11:58:20;;;;;;;0.40;0.40;;;25.60;99.90;;;;;;5073771;28;20184;-80
2022/07/11 12:00:56;;;;;;;0.47;0.47;;;25.40;99.90;;;;;;5072514;28;20185;-80
2022/07/11 12:03:21;;;;;;;0.80;0.67;;;26.20;99.90;;;;;;5065134;28;20671;-80
2022/07/11 12:05:57;;;;;;;0.37;0.37;;;24.60;99.90;;;;;;5074526;28;20185;-80
2022/07/11 12:08:27;;;;;;;0.60;0.60;;;25.00;99.90;;;;;;5069691;28;20677;-80
2022/07/11 12:10:57;;;;;;;0.80;0.40;;;24.80;99.90;;;;;;5053414;28;20207;-80
2022/07/11 12:13:22;;;;;;;0.60;0.60;;;24.50;99.90;;;;;;5072476;28;20651;-80
2022/07/11 12:18:38;;;;;;;0.47;0.40;;;24.70;99.90;;;;;;5070738;28;20191;-80
2022/07/11 12:21:12;;;;;;;0.43;0.43;;;25.10;99.90;;;;;;5055796;28;20195;-80
2022/07/11 12:23:38;;;;;;;0.23;0.23;;;24.60;99.90;;;;;;5058337;28;20216;-80
2022/07/11 12:26:04;;;;;;;0.50;0.50;;;24.50;99.90;;;;;;5076513;28;20201;-80
2022/07/11 12:28:31;;;;;;;0.83;0.57;;;24.60;99.90;;;;;;5065011;28;21228;-79
2022/07/11 12:30:57;;;;;;;0.77;0.60;;;24.20;99.90;;;;;;5090182;28;20189;-80
2022/07/11 12:33:26;;;;;;;1.00;0.40;;;24.30;99.90;;;;;;5078138;28;20183;-79
2022/07/11 12:36:00;;;;;;;0.60;0.60;;;24.90;99.90;;;;;;5062431;28;20280;-80
2022/07/11 12:38:46;;;;;;;0.80;0.80;;;24.60;99.90;;;;;;5063289;28;20294;-79
2022/07/11 12:41:12;;;;;;;0.50;0.50;;;24.30;99.90;;;;;;5071661;28;20196;-78
2022/07/11 12:46:28;;;;;;;0.40;0.40;;;24.70;99.90;;;;;;5069976;28;20299;-84
2022/07/11 12:48:55;;;;;;;0.30;0.30;;;25.10;99.90;;;;;;5075143;28;20242;-78
2022/07/11 12:51:28;;;;;;;1.13;0.73;;;25.00;99.90;;;;;;5055689;28;20655;-78
2022/07/11 12:54:09;;;;;;;0.70;0.70;;;24.90;99.90;;;;;;5052303;28;20679;-78
2022/07/11 12:56:38;;;;;;;0.70;0.70;;;24.80;99.90;;;;;;5069915;28;20698;-78
2022/07/11 12:59:05;;;;;;;0.43;0.43;;;25.10;99.90;;;;;;5076390;28;20636;-78
2022/07/11 13:01:32;;;;;;;0.60;0.60;;;25.50;99.90;;;;;;5055701;28;20595;-79
2022/07/11 13:03:58;;;;;;;0.43;0.43;;;25.00;99.90;;;;;;5067944;28;20289;-81
2022/07/11 13:09:09;;;;;;;0.67;0.67;;;24.70;99.90;;;;;;5080835;28;20202;-80
2022/07/11 13:11:34;;;;;;;0.47;0.47;;;24.90;99.90;;;;;;5080059;28;20181;-80
2022/07/11 13:14:00;;;;;;;0.57;0.53;;;25.30;99.90;;;;;;5061749;28;20560;-80
2022/07/11 13:16:26;;;;;;;0.50;0.50;;;26.20;99.90;;;;;;5055819;28;20197;-80
2022/07/11 13:18:52;;;;;;;0.47;0.47;;;26.60;99.90;;;;;;5081884;28;20185;-80
2022/07/11 13:21:18;;;;;;;0.53;0.53;;;26.80;99.90;;;;;;5067822;28;20177;-80
2022/07/11 13:23:44;;;;;;;0.50;0.50;;;26.20;99.90;;;;;;5071862;28;20181;-80
2022/07/11 13:26:10;;;;;;;0.50;0.50;;;25.40;99.90;;;;;;5076823;28;20212;-80
2022/07/11 13:28:36;;;;;;;0.40;0.40;;;25.00;99.90;;;;;;5071749;28;20642;-80